TGPYTXKF

Guest
Details From TGPY - Point Salines Intl
To TXKF - Bermuda Intl
Flight Number -
Tags Generated
Created
Modified
Stats Distance 1,233 nm / 2,284 km
Max Altitude 0 ft / 0 m
Waypoints 3
Social Downloads 1
Likes 0
Share VATSIM

Download

Looking for another format? Having issues loading an existing format? Contact us
Advertisement - Login to hide

Notes

Generated

Route

TGPY BDA TXKF

ID Type Via Altitude Latitude Longitude Leg Dist Tot Dist Heading (true) Name
O TGPY APT - 0 ft / 0 m 12.00430˚ -61.79881˚ - 0 nm - -
BDA VOR - 0 ft / 0 m 32.36436˚ -64.68958˚ 1233 nm 1233 nm 353° / 352° BERMUDA VOR-DME
O TXKF APT - 0 ft / 0 m 32.36669˚ -64.69410˚ 0 nm 1233 nm 301° / 301° -

Altitude Profile

Advertisement - Login to hide

Weather


0- 5 10 15 20 25 30 35+ Temperature / ° C

Clouds and Precipitation
Forecast for 2017-12-13 00:00 UTC. Updated an hour ago

Ground ~20,000 ft ~40,000 ft Winds

TGPY

Details ICAO TGPY (GND)
Name Grenada/Bishop International
Region Grenada
Timezone America/Grenada (UTC-4.0)
Stats Elevation 41 ft / 12 m (AMSL)
Location 12.004247° -61.786192°
Runways 1
Magnetic Variation 14.799° W

METAR

TGPY 130000Z 00000KT 9999 FEW018 25/23 Q1013 NOSIG

Decode

TAF

Not found

Departure Runways

ID Width Length Bearing (true) Bearing (mag) Surface Threshold Offset Overrun Length
10 148 ft / 45 m 9,012 ft / 2,747 m 90.26° 105.06° Asphalt 0 ft / 0 m 0 ft / 0 m
28 148 ft / 45 m 9,012 ft / 2,747 m 270.26° 285.06° Asphalt 0 ft / 0 m 0 ft / 0 m

TXKF

Details ICAO TXKF (BDA)
Name Bermuda Intl
Region Bermuda
Timezone Unknown (UTC+0.0)
Stats Elevation 12 ft / 4 m (AMSL)
Location 32.364038° -64.678684°
Runways 1
Magnetic Variation 14.784° W

METAR

TXKF 122355Z 16011KT 9999 SCT028 BKN044 BKN250 21/15 Q1011

Decode

TAF

TAF TXKF 122331Z 1300/1324 16010KT 9999 FEW030 BECMG 1304/1306 21018KT VCSH SCT018 BKN030 PROB40 1304/1309 6000 -SHRA BKN018 BECMG 1309/1311 25028KT PROB30 TEMPO 1314/1321 25028G40KT 9000 -SHRA

Decode

Destination Runways

ID Width Length Bearing (true) Bearing (mag) Surface Threshold Offset Overrun Length
12 150 ft / 46 m 9,701 ft / 2,957 m 101.50° 116.28° Asphalt 0 ft / 0 m 553 ft / 169 m
30 150 ft / 46 m 9,701 ft / 2,957 m 281.52° 296.30° Asphalt 0 ft / 0 m 207 ft / 63 m

Approach Navaids

Runway Type Ident Frequency Range Bearing (true) Bearing (mag) Slope Elevation
30 Localiser IBDA 109.90 MHz 18 nm / 33 km 281.50° 296.29° - 11 ft / 3 m (AMSL)
30 Glidescope IBDA 109.90 MHz 10 nm / 19 km 281.51° 296.30° 3.00° 11 ft / 3 m (AMSL)